Time;durP1;ratioP1;P1;durP2;ratioP2;P2;SDS_P1;SDS_P2;PMS_P1;PMS_P2;Temp;Humidity;BMP_temperature;BMP_pressure;BME280_temperature;BME280_humidity;BME280_pressure;Samples;Min_cycle;Max_cycle;Signal;HPM_P1;HPM_P2
2021/03/19 00:03:04;;;;;;;151.60;58.90;;;;;;;1.08;75.12;100899.05;4990804;58;1140698;-77
2021/03/19 00:08:10;;;;;;;142.90;56.10;;;;;;;1.15;75.41;100906.62;4990714;57;1140547;-77
2021/03/19 00:13:16;;;;;;;159.70;58.28;;;;;;;1.20;75.74;100911.25;4999029;57;1140563;-76
2021/03/19 00:18:23;;;;;;;115.73;44.13;;;;;;;1.20;75.55;100915.60;4974623;58;1141038;-76
2021/03/19 00:23:28;;;;;;;117.45;41.42;;;;;;;1.21;75.84;100913.41;4990463;57;1140532;-77
2021/03/19 00:28:34;;;;;;;125.58;48.73;;;;;;;1.27;75.92;100906.22;4990675;57;1140575;-77
2021/03/19 00:33:39;;;;;;;133.63;51.77;;;;;;;1.35;76.16;100902.92;4990148;57;1140537;-77
2021/03/19 00:38:45;;;;;;;76.13;31.70;;;;;;;1.43;76.18;100900.49;4990152;58;1140550;-75
2021/03/19 00:43:50;;;;;;;85.80;33.83;;;;;;;1.45;75.99;100900.84;4990555;57;1138372;-76
2021/03/19 00:48:56;;;;;;;92.80;38.87;;;;;;;1.44;75.66;100899.14;4990468;57;1138951;-75
2021/03/19 00:54:01;;;;;;;78.93;31.53;;;;;;;1.41;75.82;100897.94;4990641;58;1138535;-77
2021/03/19 00:59:07;;;;;;;66.93;28.80;;;;;;;1.38;75.64;100898.03;4990852;57;1138410;-77
2021/03/19 01:04:14;;;;;;;74.13;29.30;;;;;;;1.32;75.77;100889.14;4992935;58;1138401;-76
2021/03/19 01:09:20;;;;;;;58.07;25.00;;;;;;;1.22;75.86;100883.84;5002644;58;1138992;-75
2021/03/19 01:14:25;;;;;;;64.45;26.25;;;;;;;1.21;75.96;100884.75;5002892;58;1138766;-78
2021/03/19 01:19:31;;;;;;;62.10;27.90;;;;;;;1.23;76.26;100880.30;5002917;58;1138619;-77
2021/03/19 01:24:37;;;;;;;52.83;24.83;;;;;;;1.24;76.47;100878.11;5002698;58;1139044;-74
2021/03/19 01:29:42;;;;;;;48.47;23.27;;;;;;;1.28;76.23;100886.22;5002975;58;1138824;-76
2021/03/19 01:34:48;;;;;;;57.20;24.80;;;;;;;1.23;76.29;100883.77;5002746;58;1138786;-75
2021/03/19 01:39:54;;;;;;;50.20;21.73;;;;;;;1.26;76.58;100882.81;5003281;58;1138847;-79
2021/03/19 01:45:36;;;;;;;58.90;24.60;;;;;;;1.29;76.38;100890.53;5003307;58;1138594;-76
2021/03/19 01:51:35;;;;;;;70.53;27.57;;;;;;;1.20;76.08;100889.10;5003196;58;1138885;-79
2021/03/19 01:57:35;;;;;;;70.10;29.33;;;;;;;0.96;75.87;100908.97;5003080;57;1138343;-77
2021/03/19 02:03:35;;;;;;;104.20;40.58;;;;;;;0.65;76.16;100905.62;5002802;58;1138580;-79
2021/03/19 02:09:36;;;;;;;93.10;40.83;;;;;;;0.70;77.38;100899.38;4993665;58;1140425;-77
2021/03/19 02:15:36;;;;;;;93.10;36.63;;;;;;;0.70;77.38;100899.38;4991232;57;1138472;-74
2021/03/19 02:21:36;;;;;;;82.27;33.57;;;;;;;0.78;77.53;100900.88;4991116;57;1138530;-75
2021/03/19 02:27:36;;;;;;;81.33;35.40;;;;;;;0.92;77.64;100899.98;4991005;58;1138484;-75
2021/03/19 02:32:41;;;;;;;84.10;32.73;;;;;;;0.99;77.65;100893.25;4991534;57;1139156;-77
2021/03/19 02:37:47;;;;;;;56.77;26.70;;;;;;;1.11;77.89;100887.23;4991008;57;1138512;-80
2021/03/19 02:42:52;;;;;;;55.67;24.53;;;;;;;1.14;77.35;100889.74;4990975;57;1139093;-77
2021/03/19 02:47:58;;;;;;;86.23;35.03;;;;;;;1.02;77.06;100891.00;4991189;57;1138375;-77
2021/03/19 02:53:05;;;;;;;102.67;38.20;;;;;;;0.78;76.75;100904.33;4991125;58;1138418;-76
2021/03/19 02:58:11;;;;;;;84.27;34.20;;;;;;;0.56;76.99;100908.52;4990991;58;1140758;-76
2021/03/19 03:03:18;;;;;;;76.30;29.47;;;;;;;0.49;77.36;100916.08;4991005;57;1138881;-76
2021/03/19 03:08:24;;;;;;;59.20;24.90;;;;;;;0.44;77.78;100916.24;4991240;57;1146438;-77
2021/03/19 03:13:29;;;;;;;63.75;25.72;;;;;;;0.41;78.12;100918.08;4991174;58;1138642;-76
2021/03/19 03:18:35;;;;;;;56.13;23.27;;;;;;;0.40;78.28;100924.17;4991060;57;1138622;-77
2021/03/19 03:23:41;;;;;;;60.70;25.30;;;;;;;0.39;78.37;100928.52;4991013;58;1138645;-77
2021/03/19 03:28:46;;;;;;;62.20;28.13;;;;;;;0.35;78.53;100931.66;4991166;57;1138614;-76
2021/03/19 03:33:52;;;;;;;68.57;26.67;;;;;;;0.33;78.52;100939.09;4991062;57;1138941;-78
2021/03/19 03:38:58;;;;;;;47.30;21.77;;;;;;;0.37;78.84;100935.52;4990945;57;1138411;-80
2021/03/19 03:44:05;;;;;;;55.60;24.10;;;;;;;0.39;78.88;100931.58;4991094;58;1138551;-78
2021/03/19 03:49:12;;;;;;;50.77;23.67;;;;;;;0.41;78.91;100934.98;4990979;58;1138397;-75
2021/03/19 03:54:17;;;;;;;69.33;26.70;;;;;;;0.40;78.94;100931.98;4991008;57;1138948;-79
2021/03/19 03:59:23;;;;;;;66.80;27.43;;;;;;;0.44;78.86;100928.40;4991334;58;1138995;-77
2021/03/19 04:04:28;;;;;;;73.72;31.30;;;;;;;0.51;78.90;100933.81;4991214;58;1139113;-78
2021/03/19 04:09:34;;;;;;;67.17;30.52;;;;;;;0.55;79.15;100936.28;4991204;57;1138967;-78
2021/03/19 04:14:41;;;;;;;90.93;34.63;;;;;;;0.68;79.27;100931.11;4991111;57;1138503;-79
2021/03/19 04:19:46;;;;;;;76.75;32.70;;;;;;;0.74;78.73;100933.13;4990723;58;1138565;-78
2021/03/19 04:24:54;;;;;;;70.67;28.57;;;;;;;0.74;78.97;100930.08;4991009;57;1138930;-81
2021/03/19 04:30:00;;;;;;;70.87;29.33;;;;;;;0.83;78.97;100931.09;4990851;57;1138367;-81
2021/03/19 04:35:07;;;;;;;82.10;33.53;;;;;;;0.91;78.93;100922.61;4990960;57;1138916;-79
2021/03/19 04:40:14;;;;;;;83.93;36.37;;;;;;;0.94;78.75;100931.59;4991163;58;1138476;-74
2021/03/19 04:45:20;;;;;;;78.90;33.17;;;;;;;0.92;78.27;100928.19;4991011;58;1138399;-75
2021/03/19 04:50:26;;;;;;;67.92;29.45;;;;;;;0.91;77.95;100933.02;4991048;57;1138916;-80
2021/03/19 04:55:32;;;;;;;55.17;27.20;;;;;;;0.89;77.82;100930.91;4990930;57;1138604;-78
2021/03/19 05:00:38;;;;;;;64.53;29.48;;;;;;;0.75;76.81;100963.48;4991105;57;1138609;-78
2021/03/19 05:05:44;;;;;;;62.23;29.53;;;;;;;0.62;77.15;100942.99;4990695;57;1138571;-77
2021/03/19 05:10:49;;;;;;;74.03;29.77;;;;;;;0.53;77.02;100945.03;4993760;58;1138635;-81
2021/03/19 05:15:55;;;;;;;81.17;30.40;;;;;;;0.42;76.91;100952.30;5003281;58;1139009;-75
2021/03/19 05:21:02;;;;;;;66.60;29.13;;;;;;;0.37;77.34;100949.83;5003037;58;1138824;-78
2021/03/19 05:26:08;;;;;;;73.13;29.73;;;;;;;0.35;77.27;100950.31;5003192;57;1138595;-80
2021/03/19 05:31:14;;;;;;;80.57;31.70;;;;;;;0.19;76.89;100949.05;5003151;58;1138516;-79
2021/03/19 05:36:24;;;;;;;69.17;30.40;;;;;;;0.08;76.96;100952.40;5003244;58;1138477;-78
2021/03/19 05:41:34;;;;;;;66.60;29.30;;;;;;;0.07;77.25;100950.69;4997518;58;1138492;-76
2021/03/19 05:46:47;;;;;;;68.90;28.05;;;;;;;0.12;77.57;100947.53;5003187;58;1138936;-79
2021/03/19 05:52:00;;;;;;;66.05;27.65;;;;;;;0.02;77.04;100952.11;5003264;58;1138369;-78
2021/03/19 05:57:17;;;;;;;81.92;31.65;;;;;;;-0.09;77.04;100946.36;4983484;57;1138478;-76
2021/03/19 06:02:35;;;;;;;58.05;27.93;;;;;;;-0.14;77.24;100951.67;5006522;58;1140576;-79
2021/03/19 06:07:48;;;;;;;58.27;28.80;;;;;;;-0.17;77.32;100950.92;5001941;58;1140522;-77
2021/03/19 06:13:17;;;;;;;54.80;25.53;;;;;;;-0.21;77.50;100953.19;5003399;58;1140612;-80
2021/03/19 06:18:27;;;;;;;66.20;24.07;;;;;;;-0.25;77.52;100958.91;4992115;58;1140991;-79
2021/03/19 06:23:35;;;;;;;57.65;24.25;;;;;;;-0.25;77.96;100957.61;5001175;58;1140519;-77
2021/03/19 06:28:42;;;;;;;41.42;18.12;;;;;;;-0.04;78.58;100960.09;5002877;58;1140610;-77
2021/03/19 06:33:52;;;;;;;57.73;24.87;;;;;;;0.14;78.80;100967.84;5002803;58;1140477;-77
2021/03/19 06:39:25;;;;;;;57.47;22.53;;;;;;;0.19;78.56;100972.00;4994711;58;1138871;-78
2021/03/19 06:44:33;;;;;;;67.03;28.87;;;;;;;0.14;78.40;100976.50;5003555;58;1138877;-77
2021/03/19 06:49:56;;;;;;;51.30;20.10;;;;;;;0.18;78.81;100978.09;5003113;58;1138805;-79
2021/03/19 06:55:05;;;;;;;40.93;18.10;;;;;;;0.27;78.94;100980.91;5003154;58;1138699;-77
2021/03/19 07:00:13;;;;;;;45.17;20.83;;;;;;;0.28;79.11;100985.22;4999435;58;1138642;-77
2021/03/19 07:05:58;;;;;;;36.77;15.73;;;;;;;0.32;79.24;100993.32;4989350;57;1138657;-80
2021/03/19 07:11:37;;;;;;;39.07;15.83;;;;;;;0.49;79.57;100992.41;4922246;59;1138736;-77
2021/03/19 07:16:59;;;;;;;46.50;18.83;;;;;;;0.56;79.50;100987.89;4921841;59;1138506;-76
2021/03/19 07:22:30;;;;;;;21.37;9.47;;;;;;;0.68;79.64;100990.98;4936675;57;1138446;-78
2021/03/19 07:27:56;;;;;;;41.98;16.97;;;;;;;0.84;79.35;100991.83;5009851;57;1136868;-78
2021/03/19 07:33:26;;;;;;;40.97;19.03;;;;;;;0.98;79.42;100993.56;5009001;58;1138860;-79
2021/03/19 07:38:44;;;;;;;48.73;21.93;;;;;;;1.17;79.47;100992.09;5012717;57;1138833;-76
2021/03/19 07:44:03;;;;;;;22.13;8.90;;;;;;;1.29;78.74;100983.03;4762675;60;1138613;-74
2021/03/19 07:49:30;;;;;;;35.53;16.77;;;;;;;1.29;78.54;100998.22;4763057;60;1136524;-77
2021/03/19 07:55:17;;;;;;;18.65;8.88;;;;;;;1.31;78.77;100992.52;4763386;61;1139277;-76
2021/03/19 08:00:29;;;;;;;28.13;11.90;;;;;;;1.43;78.80;101001.68;4763450;61;1137572;-75
2021/03/19 08:05:53;;;;;;;42.97;20.03;;;;;;;1.49;78.74;101004.55;4763831;60;1138558;-78
2021/03/19 08:11:24;;;;;;;28.63;13.17;;;;;;;1.56;78.79;101005.59;4762908;61;1138702;-79
2021/03/19 08:16:45;;;;;;;53.38;23.70;;;;;;;1.61;79.00;100997.62;4763484;60;1138914;-75
2021/03/19 08:22:18;;;;;;;49.80;22.23;;;;;;;1.66;79.00;101008.31;4932673;57;1138466;-77
2021/03/19 08:27:49;;;;;;;55.87;21.97;;;;;;;1.71;79.05;101002.92;5011757;57;1257509;-77
2021/03/19 08:33:14;;;;;;;41.80;15.68;;;;;;;1.75;79.21;101005.39;5013534;58;1138442;-79
2021/03/19 08:38:41;;;;;;;44.15;17.07;;;;;;;1.74;79.21;101002.38;5013812;58;1138641;-76
2021/03/19 08:43:52;;;;;;;60.53;24.63;;;;;;;1.62;79.00;101014.52;5013836;58;1138559;-79
2021/03/19 08:49:02;;;;;;;45.90;14.47;;;;;;;1.56;79.54;101016.47;5013745;57;1138514;-76
2021/03/19 08:54:21;;;;;;;73.33;17.30;;;;;;;1.57;80.16;101004.69;5014609;58;1139023;-80
2021/03/19 08:59:40;;;;;;;22.10;7.43;;;;;;;1.72;80.42;101000.72;5014785;58;1138653;-77
2021/03/19 09:05:02;;;;;;;15.47;7.50;;;;;;;1.90;80.54;100998.80;5014565;58;1136574;-81
2021/03/19 09:10:25;;;;;;;15.40;5.93;;;;;;;2.03;80.44;101013.57;5009405;58;1136461;-81
2021/03/19 09:15:34;;;;;;;12.75;4.53;;;;;;;2.05;80.09;101017.84;4979333;57;1136332;-75
2021/03/19 09:21:02;;;;;;;6.10;2.52;;;;;;;2.14;80.06;101008.83;4924929;58;1137105;-75
2021/03/19 09:26:16;;;;;;;14.60;6.97;;;;;;;2.23;80.08;101016.34;4862269;58;1134386;-75
2021/03/19 09:31:29;;;;;;;;;;;;;;;2.24;79.27;101019.36;4929055;59;1136353;-75
2021/03/19 09:36:56;;;;;;;37.88;22.10;;;;;;;2.22;79.57;101009.87;4948631;59;971925;-75
2021/03/19 09:42:02;;;;;;;13.83;6.80;;;;;;;2.20;79.47;101011.68;4935666;59;1136793;-75
2021/03/19 09:47:09;;;;;;;8.63;4.87;;;;;;;2.30;79.34;101013.91;4935755;59;1136440;-75
2021/03/19 09:52:23;;;;;;;9.23;3.70;;;;;;;2.38;79.27;101020.17;4935749;59;1134948;-75
2021/03/19 09:57:31;;;;;;;7.25;4.33;;;;;;;2.39;78.91;101024.48;4935736;59;1134263;-74
2021/03/19 10:02:40;;;;;;;3.87;2.83;;;;;;;2.40;79.43;101025.73;4936321;59;1134298;-76
2021/03/19 10:07:59;;;;;;;5.47;3.40;;;;;;;2.51;79.44;101029.71;4935843;59;1134557;-76
2021/03/19 10:13:24;;;;;;;4.97;2.33;;;;;;;2.74;79.50;101018.84;4935837;59;1134701;-80
2021/03/19 10:18:40;;;;;;;7.57;4.20;;;;;;;3.09;78.94;101021.39;4935860;59;1139701;-80
2021/03/19 10:23:58;;;;;;;13.10;7.20;;;;;;;3.21;78.18;101018.75;4935330;59;1134805;-78
2021/03/19 10:29:33;;;;;;;7.50;4.60;;;;;;;3.20;77.21;101029.30;4934724;59;1136342;-80
2021/03/19 10:35:06;;;;;;;7.77;3.60;;;;;;;3.26;77.36;101031.65;4935290;59;1134731;-81
2021/03/19 10:40:19;;;;;;;7.65;3.72;;;;;;;3.29;76.67;101035.00;4930253;59;1134697;-77
2021/03/19 10:45:46;;;;;;;6.17;3.20;;;;;;;3.07;76.36;101067.63;4935640;59;1134880;-83
2021/03/19 10:51:15;;;;;;;34.03;12.03;;;;;;;2.62;75.39;101075.41;4935057;59;1134610;-83
2021/03/19 10:56:22;;;;;;;22.27;9.17;;;;;;;2.03;75.83;101071.81;4934554;59;1138645;-75
2021/03/19 11:01:38;;;;;;;6.17;4.10;;;;;;;1.81;77.12;101081.72;4934860;59;1136575;-78
2021/03/19 11:06:44;;;;;;;7.65;3.27;;;;;;;1.72;78.17;101084.16;4935280;59;1134377;-75
2021/03/19 11:11:56;;;;;;;8.43;4.53;;;;;;;1.75;78.44;101087.98;4934759;59;1134290;-75
2021/03/19 11:17:19;;;;;;;11.57;6.30;;;;;;;1.76;78.41;101090.98;4935273;59;1134440;-75
2021/03/19 11:22:26;;;;;;;8.07;2.93;;;;;;;1.70;79.09;101090.72;4919598;59;1136362;-75
2021/03/19 11:27:32;;;;;;;10.07;5.80;;;;;;;1.94;80.43;101089.09;4910127;59;1143853;-75
2021/03/19 11:32:38;;;;;;;9.00;5.97;;;;;;;2.14;80.47;101081.06;4911017;59;1136411;-75
2021/03/19 11:37:46;;;;;;;7.70;3.20;;;;;;;2.31;79.99;101085.22;4910757;59;1134524;-74
2021/03/19 11:43:01;;;;;;;3.00;1.90;;;;;;;2.51;78.89;101088.00;4910660;59;1134333;-74
2021/03/19 11:48:31;;;;;;;8.20;2.80;;;;;;;2.59;74.69;101087.75;4910532;59;1134448;-75
2021/03/19 11:53:37;;;;;;;12.82;2.40;;;;;;;2.58;73.63;101094.73;4911032;59;1134437;-74
2021/03/19 11:58:43;;;;;;;5.53;1.52;;;;;;;2.71;71.13;101083.38;4910647;59;1136301;-75
2021/03/19 12:03:54;;;;;;;10.77;4.03;;;;;;;2.88;70.08;101091.46;4910751;59;1134277;-75
2021/03/19 12:09:00;;;;;;;4.47;2.30;;;;;;;3.05;70.25;101097.38;4910384;59;1136337;-75
2021/03/19 12:14:08;;;;;;;13.97;4.10;;;;;;;3.29;66.95;101103.42;4910944;59;1134327;-75
2021/03/19 12:19:15;;;;;;;4.83;2.47;;;;;;;3.51;68.75;101101.20;4910529;59;1136333;-74
2021/03/19 12:24:21;;;;;;;13.40;4.30;;;;;;;3.70;67.95;101093.49;4910476;59;1134553;-76
2021/03/19 12:29:26;;;;;;;13.67;3.37;;;;;;;3.83;65.09;101094.70;4910664;59;1136487;-76
2021/03/19 12:34:33;;;;;;;4.37;1.50;;;;;;;3.77;61.06;101100.20;4911178;59;1138797;-74
2021/03/19 12:39:38;;;;;;;3.70;1.87;;;;;;;3.96;61.83;101091.15;4911588;59;1134723;-74
2021/03/19 12:44:44;;;;;;;6.03;2.30;;;;;;;4.14;61.17;101107.38;4911592;59;1142961;-77
2021/03/19 12:49:50;;;;;;;2.80;1.87;;;;;;;4.42;62.11;101096.61;4911738;59;1134450;-78
2021/03/19 12:54:55;;;;;;;7.23;2.37;;;;;;;4.71;60.07;101089.25;4911582;59;1134308;-79
2021/03/19 13:00:01;;;;;;;12.60;4.73;;;;;;;4.81;58.02;101103.17;4911558;59;1134360;-78
2021/03/19 13:05:08;;;;;;;3.43;2.33;;;;;;;4.69;55.83;101088.00;4911176;59;1136453;-74
2021/03/19 13:10:15;;;;;;;11.20;5.00;;;;;;;4.49;56.35;101106.34;4911240;59;1134435;-75
2021/03/19 13:15:25;;;;;;;2.43;1.33;;;;;;;4.08;55.09;101112.03;4910838;59;1136863;-74
2021/03/19 13:20:32;;;;;;;4.87;1.63;;;;;;;4.09;56.05;101108.05;4892414;59;1134277;-75
2021/03/19 13:25:46;;;;;;;26.17;13.62;;;;;;;4.31;55.40;101112.36;4925742;59;1134501;-74
2021/03/19 13:30:50;;;;;;;6.85;1.90;;;;;;;4.20;53.81;101115.44;4934548;59;1138364;-74
2021/03/19 13:35:59;;;;;;;4.73;0.87;;;;;;;4.03;54.58;101116.14;4935554;59;1134225;-74
2021/03/19 13:41:08;;;;;;;14.97;4.70;;;;;;;3.84;50.56;101112.10;4935432;59;1134207;-75
2021/03/19 13:46:23;;;;;;;6.17;2.80;;;;;;;3.78;54.17;101131.98;4935335;59;1136291;-74
2021/03/19 13:51:24;;;;;;;6.83;2.60;;;;;;;3.94;52.16;101120.91;4935077;59;1134292;-73
2021/03/19 13:56:29;;;;;;;5.57;1.70;;;;;;;3.85;53.94;101139.97;4935801;59;1134367;-74
2021/03/19 14:01:35;;;;;;;5.45;2.40;;;;;;;3.73;54.84;101136.55;4935417;59;1134314;-74
2021/03/19 14:06:41;;;;;;;9.85;3.33;;;;;;;3.73;51.37;101135.23;4935703;59;1134481;-74
2021/03/19 14:11:47;;;;;;;12.30;4.28;;;;;;;3.80;51.38;101145.02;4935443;59;1134462;-74
2021/03/19 14:16:52;;;;;;;8.88;3.15;;;;;;;4.02;51.98;101143.22;4935033;59;1136470;-74
2021/03/19 14:21:58;;;;;;;1.97;1.07;;;;;;;4.12;48.75;101144.57;4935445;59;1134424;-74
2021/03/19 14:27:03;;;;;;;4.10;1.80;;;;;;;4.11;48.00;101142.02;4956850;57;1134604;-74
2021/03/19 14:32:10;;;;;;;5.20;1.93;;;;;;;4.01;48.18;101146.75;5015647;57;1134365;-74
2021/03/19 14:37:15;;;;;;;19.00;5.80;;;;;;;4.13;50.20;101142.77;5015067;57;1134535;-75
2021/03/19 14:42:20;;;;;;;4.23;1.60;;;;;;;4.03;49.08;101129.22;5014635;57;1136380;-74
2021/03/19 14:47:26;;;;;;;19.17;5.33;;;;;;;3.85;48.35;101141.73;5015103;57;1134645;-74
2021/03/19 14:52:32;;;;;;;12.07;4.15;;;;;;;3.67;50.48;101166.00;5019243;57;1136518;-76
2021/03/19 14:57:38;;;;;;;13.03;4.73;;;;;;;3.60;49.77;101152.78;4920912;58;1136674;-77
2021/03/19 15:02:47;;;;;;;13.32;5.55;;;;;;;3.58;50.09;101159.83;4855458;59;1136556;-77
2021/03/19 15:07:54;;;;;;;22.00;6.87;;;;;;;3.50;50.52;101160.13;4927015;58;1136359;-77
2021/03/19 15:13:00;;;;;;;14.37;4.00;;;;;;;3.31;48.13;101180.88;4933650;59;1136316;-75
2021/03/19 15:18:11;;;;;;;34.33;11.30;;;;;;;3.06;49.22;101180.91;4934696;58;1136344;-75
2021/03/19 15:23:24;;;;;;;43.00;13.53;;;;;;;2.98;49.69;101184.27;4934027;58;1138434;-74
2021/03/19 15:28:31;;;;;;;13.77;5.03;;;;;;;2.80;48.70;101187.52;4903140;58;1138731;-80
2021/03/19 15:33:38;;;;;;;23.65;8.90;;;;;;;2.70;49.92;101185.69;4910581;58;1136531;-76
2021/03/19 15:38:46;;;;;;;32.13;9.50;;;;;;;2.71;50.61;101193.92;4910204;59;1136474;-76
2021/03/19 15:43:52;;;;;;;19.02;8.38;;;;;;;2.67;51.04;101194.08;4910270;59;1136456;-76
2021/03/19 15:48:57;;;;;;;15.43;6.53;;;;;;;2.60;51.09;101198.64;4910666;59;1136293;-76
2021/03/19 15:54:03;;;;;;;10.33;3.73;;;;;;;2.45;51.16;101204.38;4910849;59;1136276;-76
2021/03/19 15:59:09;;;;;;;33.05;8.70;;;;;;;2.38;51.15;101209.41;4910657;59;1136326;-76
2021/03/19 16:04:16;;;;;;;17.07;5.50;;;;;;;2.22;52.58;101226.02;4910515;59;1136372;-77
2021/03/19 16:09:22;;;;;;;13.10;4.97;;;;;;;2.14;54.24;101243.66;4910763;59;1136977;-74
2021/03/19 16:14:27;;;;;;;21.57;6.43;;;;;;;2.10;54.72;101237.70;4910825;59;1136688;-74
2021/03/19 16:19:34;;;;;;;19.95;5.97;;;;;;;2.09;54.73;101259.93;4925297;59;1136690;-76
2021/03/19 16:24:39;;;;;;;18.13;6.97;;;;;;;2.06;55.49;101266.09;4896062;59;1136986;-74
2021/03/19 16:29:48;;;;;;;22.85;7.47;;;;;;;2.13;55.88;101272.44;4915708;59;1136857;-74
2021/03/19 16:34:53;;;;;;;8.23;3.10;;;;;;;2.19;56.22;101282.22;4922624;59;1136429;-73
2021/03/19 16:39:59;;;;;;;9.70;4.00;;;;;;;2.20;56.16;101285.69;4922722;59;1134248;-74
2021/03/19 16:45:06;;;;;;;10.37;4.40;;;;;;;2.08;56.35;101288.22;4922417;59;1134434;-74
2021/03/19 16:50:13;;;;;;;20.77;8.20;;;;;;;1.91;56.72;101293.09;4922491;59;1136428;-74
2021/03/19 16:55:23;;;;;;;13.30;5.17;;;;;;;1.79;56.96;101290.84;4922553;59;1136347;-74
2021/03/19 17:00:33;;;;;;;20.43;9.33;;;;;;;1.70;57.66;101304.98;4922543;59;1136446;-74
2021/03/19 17:05:39;;;;;;;25.05;7.12;;;;;;;1.58;58.08;101317.06;4922962;59;1136307;-74
2021/03/19 17:10:45;;;;;;;18.00;6.58;;;;;;;1.47;58.34;101323.89;4923095;59;1136405;-75
2021/03/19 17:15:53;;;;;;;23.03;7.30;;;;;;;1.29;58.74;101321.77;4923018;59;1136740;-75
2021/03/19 17:21:02;;;;;;;15.63;4.77;;;;;;;1.12;58.93;101330.47;4923125;59;1136296;-75
2021/03/19 17:26:09;;;;;;;21.57;7.80;;;;;;;1.02;58.85;101330.72;4923139;59;1136390;-74
2021/03/19 17:31:17;;;;;;;16.63;6.03;;;;;;;0.88;58.67;101343.68;4927978;59;1136419;-74
2021/03/19 17:36:24;;;;;;;24.47;7.90;;;;;;;0.75;58.46;101352.23;4935653;59;1136310;-74
2021/03/19 17:41:30;;;;;;;15.93;6.07;;;;;;;0.66;58.79;101357.64;4935648;59;1136304;-74
2021/03/19 17:46:36;;;;;;;24.90;9.10;;;;;;;0.55;58.87;101370.92;4916516;59;1136577;-76
2021/03/19 17:51:41;;;;;;;25.85;8.38;;;;;;;0.46;59.31;101372.41;4935641;59;1136510;-80
2021/03/19 17:56:47;;;;;;;26.20;8.78;;;;;;;0.45;59.60;101375.07;4935582;59;1136302;-77
2021/03/19 18:01:53;;;;;;;28.32;9.40;;;;;;;0.50;59.95;101377.96;4935647;59;1136531;-75
2021/03/19 18:06:58;;;;;;;20.87;8.93;;;;;;;0.51;60.10;101384.88;4935435;59;1136519;-76
2021/03/19 18:12:04;;;;;;;22.63;8.90;;;;;;;0.45;60.51;101388.08;4932229;59;1136555;-74
2021/03/19 18:17:10;;;;;;;28.33;9.77;;;;;;;0.41;61.15;101398.14;4935323;59;1136701;-79
2021/03/19 18:22:20;;;;;;;26.53;9.17;;;;;;;0.39;61.54;101396.87;4976114;57;1136467;-77
2021/03/19 18:27:29;;;;;;;42.70;14.10;;;;;;;0.28;62.02;101402.31;5016000;57;1136993;-75
2021/03/19 18:32:34;;;;;;;52.40;20.63;;;;;;;0.23;63.00;101391.58;5011322;57;1138908;-78
2021/03/19 18:37:40;;;;;;;27.73;8.73;;;;;;;0.25;63.07;101402.38;5002233;57;1139195;-78
2021/03/19 18:42:46;;;;;;;40.77;12.60;;;;;;;0.28;63.12;101403.61;5002533;57;1136731;-77
2021/03/19 18:47:51;;;;;;;39.40;11.10;;;;;;;0.16;63.06;101406.89;5002202;57;1138858;-74
2021/03/19 18:53:00;;;;;;;45.60;14.50;;;;;;;0.12;63.41;101420.87;5001818;57;1138491;-76
2021/03/19 18:58:06;;;;;;;28.90;10.27;;;;;;;0.10;63.64;101434.34;5002225;57;1138523;-76
2021/03/19 19:03:12;;;;;;;45.37;13.60;;;;;;;0.12;63.64;101439.08;5001708;57;1138532;-73
2021/03/19 19:08:18;;;;;;;31.40;9.63;;;;;;;0.12;63.64;101448.17;5001920;57;1138526;-79
2021/03/19 19:13:24;;;;;;;31.05;12.10;;;;;;;0.11;63.46;101454.27;5001866;57;1136484;-77
2021/03/19 19:18:30;;;;;;;82.13;24.90;;;;;;;0.01;63.43;101453.56;5002249;57;1138628;-78
2021/03/19 19:23:36;;;;;;;101.20;32.77;;;;;;;-0.02;63.65;101465.35;5001934;57;1138675;-79
2021/03/19 19:28:42;;;;;;;102.25;36.80;;;;;;;0.09;64.29;101474.23;5001920;57;1142729;-79
2021/03/19 19:33:48;;;;;;;131.00;42.13;;;;;;;0.20;64.51;101480.08;4999335;57;1140598;-77
2021/03/19 19:38:54;;;;;;;67.97;23.95;;;;;;;0.24;64.61;101490.41;5000598;58;1140494;-76
2021/03/19 19:44:00;;;;;;;56.90;18.07;;;;;;;0.19;64.11;101495.27;5001320;58;1138551;-78
2021/03/19 19:49:08;;;;;;;30.60;9.83;;;;;;;0.10;63.88;101487.22;5000890;58;1138588;-77
2021/03/19 19:54:14;;;;;;;29.77;9.93;;;;;;;-0.09;63.28;101500.14;4994339;58;1136558;-80
2021/03/19 19:59:20;;;;;;;32.80;9.50;;;;;;;-0.37;63.05;101502.37;4992612;58;1138731;-78
2021/03/19 20:04:26;;;;;;;31.67;8.80;;;;;;;-0.54;62.58;101509.58;4993341;58;1138620;-77
2021/03/19 20:09:32;;;;;;;39.83;12.53;;;;;;;-0.68;62.36;101507.20;4969676;57;1138784;-78
2021/03/19 20:14:38;;;;;;;44.40;14.13;;;;;;;-0.71;62.41;101515.03;4940390;58;1140987;-76
2021/03/19 20:19:43;;;;;;;25.32;9.23;;;;;;;-0.80;62.54;101508.70;4937142;58;1141420;-76
2021/03/19 20:24:50;;;;;;;22.33;7.90;;;;;;;-0.82;62.17;101516.95;4949000;57;1139369;-76
2021/03/19 20:29:57;;;;;;;17.80;4.87;;;;;;;-0.80;62.56;101519.95;4884987;59;1138911;-74
2021/03/19 20:35:03;;;;;;;26.30;8.60;;;;;;;-0.78;62.33;101523.82;4977655;58;1139102;-74
2021/03/19 20:40:14;;;;;;;27.43;8.07;;;;;;;-0.83;62.47;101526.92;4944934;57;1138748;-75
2021/03/19 20:45:23;;;;;;;33.70;8.90;;;;;;;-0.96;62.60;101527.54;4955542;58;1138576;-76
2021/03/19 20:50:39;;;;;;;32.40;10.93;;;;;;;-0.96;62.81;101522.78;4950475;57;1138815;-79
2021/03/19 20:55:46;;;;;;;36.38;10.65;;;;;;;-0.93;63.14;101528.80;4953408;57;1140686;-74
2021/03/19 21:00:56;;;;;;;32.75;10.35;;;;;;;-0.87;63.39;101534.33;4861846;59;1140804;-78
2021/03/19 21:06:06;;;;;;;38.70;11.67;;;;;;;-0.83;63.39;101536.87;4941080;57;1141125;-77
2021/03/19 21:11:14;;;;;;;18.87;7.07;;;;;;;-0.88;63.58;101542.99;4849816;59;1141039;-73
2021/03/19 21:16:19;;;;;;;25.80;10.17;;;;;;;-0.96;63.83;101540.95;4991080;58;1138412;-77
2021/03/19 21:21:25;;;;;;;46.90;12.07;;;;;;;-1.03;64.08;101546.66;4991196;57;1140580;-78
2021/03/19 21:26:31;;;;;;;63.30;14.63;;;;;;;-1.04;64.36;101549.27;4901779;59;1140512;-77
2021/03/19 21:31:38;;;;;;;34.93;9.57;;;;;;;-0.95;64.68;101556.96;4991492;57;1140678;-76
2021/03/19 21:36:48;;;;;;;18.57;6.95;;;;;;;-0.91;64.58;101555.58;4851422;59;1138678;-76
2021/03/19 21:41:55;;;;;;;23.70;8.93;;;;;;;-0.89;64.58;101563.34;4920772;57;1139047;-78
2021/03/19 21:47:00;;;;;;;30.00;10.87;;;;;;;-0.91;64.62;101567.26;4825049;59;1138616;-81
2021/03/19 21:52:08;;;;;;;21.57;7.07;;;;;;;-0.89;64.80;101566.80;4911665;57;1140678;-77
2021/03/19 21:57:14;;;;;;;34.10;11.83;;;;;;;-0.95;64.62;101575.13;4912117;57;1138534;-78
2021/03/19 22:02:20;;;;;;;16.80;5.63;;;;;;;-1.03;64.86;101584.75;4911738;57;1140760;-74
2021/03/19 22:07:26;;;;;;;9.60;4.30;;;;;;;-1.03;64.86;101577.81;4824888;59;1138640;-73
2021/03/19 22:12:31;;;;;;;16.27;6.40;;;;;;;-1.06;64.92;101578.71;4911392;57;1136859;-79
2021/03/19 22:17:38;;;;;;;64.33;19.23;;;;;;;-1.10;64.99;101581.39;4823866;59;1138695;-78
2021/03/19 22:22:44;;;;;;;45.73;13.27;;;;;;;-1.22;64.71;101579.78;4909647;57;1140907;-75
2021/03/19 22:27:50;;;;;;;53.70;13.90;;;;;;;-1.37;64.90;101584.29;4911187;57;1140829;-77
2021/03/19 22:32:57;;;;;;;44.33;10.63;;;;;;;-1.55;65.21;101589.27;4823690;59;1141162;-78
2021/03/19 22:38:04;;;;;;;41.53;11.17;;;;;;;-1.68;65.62;101583.80;4912477;57;1140516;-76
2021/03/19 22:43:11;;;;;;;43.67;13.87;;;;;;;-1.75;65.98;101588.61;4892543;59;1140722;-77
2021/03/19 22:48:19;;;;;;;61.87;20.30;;;;;;;-1.82;66.09;101591.69;4915336;59;1140549;-81
2021/03/19 22:53:27;;;;;;;28.13;7.87;;;;;;;-1.85;66.34;101594.34;5001842;58;1140752;-78
2021/03/19 22:58:39;;;;;;;29.02;9.55;;;;;;;-1.78;66.60;101594.25;5002807;57;1138654;-76
2021/03/19 23:03:46;;;;;;;25.95;6.80;;;;;;;-1.85;66.46;101593.90;5002881;57;1138635;-78
2021/03/19 23:08:52;;;;;;;16.77;5.28;;;;;;;-1.83;66.41;101604.22;5002859;57;1138491;-76
2021/03/19 23:14:01;;;;;;;19.25;6.35;;;;;;;-1.95;66.33;101605.64;5002832;57;1138521;-75
2021/03/19 23:19:11;;;;;;;8.73;3.17;;;;;;;-2.00;66.67;101607.00;5002876;57;1138488;-80
2021/03/19 23:24:18;;;;;;;8.23;3.37;;;;;;;-2.03;66.72;101608.31;5002910;57;1136260;-79